createdAt,value
2019-03-27T00:00:10.318Z,80.00
2019-03-27T00:02:39.100Z,79.80
2019-03-27T00:05:07.872Z,79.60
2019-03-27T00:07:36.744Z,80.00
2019-03-27T00:10:07.960Z,79.50
2019-03-27T00:12:37.754Z,78.50
2019-03-27T00:15:13.134Z,77.80
2019-03-27T00:17:40.549Z,78.00
2019-03-27T00:20:09.501Z,78.30
2019-03-27T00:22:38.374Z,77.50
2019-03-27T00:25:09.824Z,76.50
2019-03-27T00:27:38.593Z,76.70
2019-03-27T00:30:08.633Z,76.60
2019-03-27T00:32:37.446Z,76.10
2019-03-27T00:35:07.220Z,75.20
2019-03-27T00:37:36.062Z,75.30
2019-03-27T00:40:08.140Z,76.30
2019-03-27T00:42:36.920Z,77.80
2019-03-27T00:45:09.629Z,77.60
2019-03-27T00:47:38.474Z,77.70
2019-03-27T00:50:07.979Z,78.00
2019-03-27T00:52:36.787Z,77.60
2019-03-27T00:55:06.470Z,77.80
2019-03-27T00:57:35.251Z,76.30
2019-03-27T01:00:19.113Z,75.90
2019-03-27T01:02:47.883Z,74.60
2019-03-27T01:05:16.663Z,76.60
2019-03-27T01:07:45.458Z,78.30
2019-03-27T01:10:14.318Z,79.10
2019-03-27T01:12:43.091Z,79.70
2019-03-27T01:15:11.889Z,79.60
2019-03-27T01:17:40.725Z,78.40
2019-03-27T01:20:09.500Z,78.00
2019-03-27T01:22:38.299Z,77.30
2019-03-27T01:25:07.154Z,78.30
2019-03-27T01:27:35.982Z,77.80
2019-03-27T01:30:05.634Z,77.20
2019-03-27T01:32:34.412Z,77.60
2019-03-27T01:35:03.538Z,78.10
2019-03-27T01:37:32.333Z,78.40
2019-03-27T01:40:01.125Z,77.10
2019-03-27T01:42:29.907Z,76.40
2019-03-27T01:44:58.709Z,76.50
2019-03-27T01:47:27.473Z,77.40
2019-03-27T01:49:56.245Z,76.70
2019-03-27T01:52:25.039Z,77.70
2019-03-27T01:54:55.949Z,78.20
2019-03-27T01:57:25.113Z,79.10
2019-03-27T01:59:54.064Z,79.40
2019-03-27T02:02:22.904Z,78.30
2019-03-27T02:04:51.687Z,77.80
2019-03-27T02:07:20.498Z,78.70
2019-03-27T02:09:49.264Z,79.10
2019-03-27T02:12:18.033Z,79.70
2019-03-27T02:14:46.841Z,80.00
2019-03-27T02:17:15.710Z,77.90
2019-03-27T02:19:44.840Z,76.90
2019-03-27T02:22:13.934Z,77.40
2019-03-27T02:24:42.769Z,79.30
2019-03-27T02:27:11.546Z,79.50
2019-03-27T02:29:40.414Z,80.10
2019-03-27T02:32:09.183Z,80.20
2019-03-27T02:34:38.016Z,80.50
2019-03-27T02:37:07.208Z,80.10
2019-03-27T02:39:36.045Z,80.30
2019-03-27T02:42:04.914Z,80.60
2019-03-27T02:44:33.813Z,80.30
2019-03-27T02:47:02.659Z,79.30
2019-03-27T02:49:31.438Z,79.50
2019-03-27T02:52:00.530Z,80.20
2019-03-27T02:54:29.331Z,80.30
2019-03-27T02:56:58.170Z,80.50
2019-03-27T02:59:26.988Z,80.20
2019-03-27T03:01:55.838Z,79.20
2019-03-27T03:04:24.685Z,78.50
2019-03-27T03:06:53.510Z,79.20
2019-03-27T03:09:22.364Z,79.40
2019-03-27T03:11:51.466Z,78.30
2019-03-27T03:14:20.345Z,77.80
2019-03-27T03:16:49.116Z,77.30
2019-03-27T03:19:17.893Z,78.20
2019-03-27T03:21:46.861Z,79.70
2019-03-27T03:24:15.656Z,79.70
2019-03-27T03:26:44.511Z,80.30
2019-03-27T03:29:13.319Z,80.50
2019-03-27T03:31:42.398Z,80.60
2019-03-27T03:34:11.241Z,80.40
2019-03-27T03:36:40.143Z,78.40
2019-03-27T03:39:08.963Z,78.60
2019-03-27T03:41:37.755Z,79.00
2019-03-27T03:44:06.953Z,79.30
2019-03-27T03:46:36.058Z,79.90
2019-03-27T03:49:04.904Z,79.40
2019-03-27T03:51:34.044Z,80.10
2019-03-27T03:54:03.297Z,80.20
2019-03-27T03:56:32.586Z,80.00
2019-03-27T03:59:01.404Z,78.60
2019-03-27T04:01:30.241Z,76.70
2019-03-27T04:03:59.087Z,76.00
2019-03-27T04:06:27.885Z,76.70
2019-03-27T04:08:56.658Z,77.20
2019-03-27T04:11:25.437Z,77.70
2019-03-27T04:13:54.255Z,79.00
2019-03-27T04:16:23.106Z,78.90
2019-03-27T04:18:51.957Z,78.20
2019-03-27T04:21:21.744Z,78.80
2019-03-27T04:23:50.781Z,78.90
2019-03-27T04:26:19.873Z,79.10
2019-03-27T04:28:48.677Z,79.80
2019-03-27T04:31:17.445Z,80.00
2019-03-27T04:33:46.643Z,80.10
2019-03-27T04:36:15.517Z,80.40
2019-03-27T04:38:44.433Z,80.50
2019-03-27T04:41:13.318Z,80.20
2019-03-27T04:43:42.197Z,80.20
2019-03-27T04:46:11.308Z,79.50
2019-03-27T04:48:40.411Z,79.20
2019-03-27T04:51:09.196Z,79.80
2019-03-27T04:53:37.969Z,80.40
2019-03-27T04:56:06.749Z,80.10
2019-03-27T04:58:35.873Z,79.60
2019-03-27T05:01:04.653Z,79.60
2019-03-27T05:03:33.758Z,79.30
2019-03-27T05:06:02.564Z,79.80
2019-03-27T05:08:31.393Z,80.50
2019-03-27T05:11:00.164Z,80.50
2019-03-27T05:13:28.953Z,80.50
2019-03-27T05:15:57.885Z,80.80
2019-03-27T05:18:26.664Z,80.00
2019-03-27T05:20:55.564Z,79.60
2019-03-27T05:23:24.338Z,79.30
2019-03-27T05:25:53.191Z,78.90
2019-03-27T05:28:22.066Z,78.50
2019-03-27T05:30:50.855Z,77.50
2019-03-27T05:33:19.635Z,77.50
2019-03-27T05:35:48.756Z,77.40
2019-03-27T05:38:17.842Z,77.70
2019-03-27T05:40:46.650Z,78.20
2019-03-27T05:43:15.516Z,79.30
2019-03-27T05:45:44.306Z,79.00
2019-03-27T05:48:13.142Z,78.50
2019-03-27T05:50:42.296Z,79.00
2019-03-27T05:53:11.405Z,79.10
2019-03-27T05:55:40.179Z,78.60
2019-03-27T05:58:09.009Z,78.90
2019-03-27T06:00:37.846Z,79.10
2019-03-27T06:03:06.842Z,78.60
2019-03-27T06:05:35.662Z,80.00
2019-03-27T06:08:04.522Z,82.00
2019-03-27T06:10:33.373Z,83.30
2019-03-27T06:13:02.170Z,83.20
2019-03-27T06:15:30.946Z,82.40
2019-03-27T06:18:12.586Z,82.20
2019-03-27T06:20:30.629Z,81.50
2019-03-27T06:22:59.404Z,81.00
2019-03-27T06:25:28.153Z,80.70
2019-03-27T06:27:56.953Z,80.00
2019-03-27T06:30:26.128Z,81.00
2019-03-27T06:32:54.993Z,81.40
2019-03-27T06:35:23.873Z,81.20
2019-03-27T06:37:52.714Z,80.90
2019-03-27T06:40:21.486Z,79.90
2019-03-27T06:42:50.277Z,79.70
2019-03-27T06:45:19.056Z,79.70
2019-03-27T06:47:47.907Z,80.20
2019-03-27T06:50:17.152Z,80.30
2019-03-27T06:52:46.250Z,78.80
2019-03-27T06:55:15.100Z,77.70
2019-03-27T06:57:43.991Z,77.90
2019-03-27T07:00:13.133Z,76.60
2019-03-27T07:02:41.979Z,76.40
2019-03-27T07:05:10.773Z,76.50
2019-03-27T07:07:39.548Z,75.80
2019-03-27T07:10:08.327Z,76.70
2019-03-27T07:12:37.124Z,76.70
2019-03-27T07:15:06.286Z,77.40
2019-03-27T07:17:35.631Z,78.00
2019-03-27T07:20:06.269Z,77.40
2019-03-27T07:22:35.055Z,76.40
2019-03-27T07:25:06.566Z,75.80
2019-03-27T07:27:35.348Z,76.00
2019-03-27T07:30:05.186Z,76.20
2019-03-27T07:32:33.945Z,75.50
2019-03-27T07:35:02.812Z,75.40
2019-03-27T07:37:31.594Z,75.20
2019-03-27T07:40:00.737Z,74.80
2019-03-27T07:42:29.971Z,75.00
2019-03-27T07:44:58.738Z,75.50
2019-03-27T07:47:27.813Z,76.10
2019-03-27T07:49:56.609Z,76.50
2019-03-27T07:52:25.406Z,76.70
2019-03-27T07:54:54.218Z,77.10
2019-03-27T07:57:23.080Z,78.00
2019-03-27T07:59:52.268Z,78.70
2019-03-27T08:02:21.134Z,77.80
2019-03-27T08:04:49.930Z,77.50
2019-03-27T08:07:26.679Z,77.40
2019-03-27T08:09:49.252Z,77.40
2019-03-27T08:12:18.065Z,76.00
2019-03-27T08:14:46.941Z,75.10
2019-03-27T08:17:15.714Z,74.50
2019-03-27T08:19:44.518Z,74.60
2019-03-27T08:22:13.641Z,74.50
2019-03-27T08:24:42.419Z,74.60
2019-03-27T08:27:14.358Z,73.10
2019-03-27T08:29:41.690Z,71.30
2019-03-27T08:32:10.474Z,71.20
2019-03-27T08:34:39.285Z,71.10
2019-03-27T08:37:08.075Z,70.00
2019-03-27T08:39:36.916Z,69.10
2019-03-27T08:42:06.001Z,67.80
2019-03-27T08:44:34.771Z,66.30
2019-03-27T08:47:03.563Z,64.90
2019-03-27T08:49:32.438Z,63.70
2019-03-27T08:52:01.210Z,61.80
2019-03-27T08:54:29.984Z,59.80
2019-03-27T08:56:58.783Z,59.10
2019-03-27T08:59:27.633Z,57.10
2019-03-27T09:01:56.402Z,56.00
2019-03-27T09:04:25.545Z,55.00
2019-03-27T09:06:54.397Z,53.30
2019-03-27T09:09:23.181Z,51.80
2019-03-27T09:11:52.308Z,51.70
2019-03-27T09:14:21.173Z,50.60
2019-03-27T09:16:50.014Z,49.10
2019-03-27T09:19:18.818Z,47.70
2019-03-27T09:21:47.974Z,47.40
2019-03-27T09:24:16.741Z,44.10
2019-03-27T09:26:45.537Z,39.70
2019-03-27T09:29:14.322Z,38.50
2019-03-27T09:31:45.146Z,38.60
2019-03-27T09:34:13.585Z,38.10
2019-03-27T09:36:42.368Z,38.30
2019-03-27T09:39:11.218Z,38.30
2019-03-27T09:41:40.090Z,38.50
2019-03-27T09:44:08.858Z,37.00
2019-03-27T09:46:37.640Z,36.40
2019-03-27T09:49:06.448Z,34.80
2019-03-27T09:51:35.220Z,31.80
2019-03-27T09:54:04.067Z,31.30
2019-03-27T09:56:32.869Z,28.30
2019-03-27T09:59:02.277Z,28.70
2019-03-27T10:01:31.065Z,27.60
2019-03-27T10:04:00.276Z,27.50
2019-03-27T10:06:29.796Z,28.30
2019-03-27T10:08:58.882Z,28.20
2019-03-27T10:11:27.987Z,32.20
2019-03-27T10:13:56.826Z,35.20
2019-03-27T10:16:25.596Z,36.00
2019-03-27T10:18:54.466Z,37.80
2019-03-27T10:21:23.238Z,36.90
2019-03-27T10:23:52.017Z,37.50
2019-03-27T10:26:20.829Z,38.40
2019-03-27T10:28:49.596Z,36.70
2019-03-27T10:31:18.375Z,37.80
2019-03-27T10:33:47.191Z,38.20
2019-03-27T10:36:16.029Z,37.20
2019-03-27T10:38:44.819Z,36.80
2019-03-27T10:41:13.697Z,35.20
2019-03-27T10:43:42.548Z,35.80
2019-03-27T10:46:11.325Z,36.20
2019-03-27T10:48:51.884Z,37.40
2019-03-27T10:51:10.617Z,37.80
2019-03-27T10:53:39.386Z,38.50
2019-03-27T10:56:08.183Z,35.60
2019-03-27T10:58:36.970Z,34.30
2019-03-27T11:01:07.457Z,34.80
2019-03-27T11:03:36.568Z,37.10
2019-03-27T11:06:05.849Z,39.00
2019-03-27T11:08:34.626Z,41.70
2019-03-27T11:11:03.491Z,43.00
2019-03-27T11:13:34.375Z,45.70
2019-03-27T11:16:02.799Z,47.80
2019-03-27T11:18:31.602Z,48.40
2019-03-27T11:21:00.381Z,49.60
2019-03-27T11:23:29.155Z,49.30
2019-03-27T11:25:57.953Z,50.20
2019-03-27T11:28:26.734Z,49.30
2019-03-27T11:30:55.510Z,49.50
2019-03-27T11:33:24.319Z,50.00
2019-03-27T11:35:53.179Z,48.90
2019-03-27T11:38:22.024Z,48.10
2019-03-27T11:40:50.845Z,48.30
2019-03-27T11:43:19.694Z,47.10
2019-03-27T11:45:48.921Z,45.20
2019-03-27T11:48:18.018Z,42.20
2019-03-27T11:50:46.862Z,43.00
2019-03-27T11:53:15.647Z,42.80
2019-03-27T11:55:44.450Z,43.30
2019-03-27T11:58:14.910Z,44.60
2019-03-27T12:00:54.380Z,45.10
2019-03-27T12:03:14.430Z,44.60
2019-03-27T12:05:45.580Z,43.50
2019-03-27T12:08:13.684Z,40.90
2019-03-27T12:10:42.484Z,41.00
2019-03-27T12:13:11.262Z,40.90
2019-03-27T12:15:40.771Z,40.60
2019-03-27T12:18:10.791Z,39.60
2019-03-27T12:20:39.639Z,41.50
2019-03-27T12:23:08.483Z,42.60
2019-03-27T12:25:37.289Z,43.00
2019-03-27T12:28:06.350Z,42.50
2019-03-27T12:30:35.197Z,44.10
2019-03-27T12:33:04.076Z,44.60
2019-03-27T12:35:32.852Z,44.10
2019-03-27T12:38:04.258Z,44.30
2019-03-27T12:40:32.183Z,45.70
2019-03-27T12:43:00.963Z,45.30
2019-03-27T12:45:30.056Z,45.60
2019-03-27T12:47:58.943Z,45.90
2019-03-27T12:50:27.731Z,45.70
2019-03-27T12:52:56.833Z,46.60
2019-03-27T12:55:25.694Z,45.40
2019-03-27T12:57:54.542Z,44.60
2019-03-27T13:00:23.308Z,44.10
2019-03-27T13:02:52.124Z,45.30
2019-03-27T13:05:20.899Z,44.50
2019-03-27T13:07:50.467Z,44.20
2019-03-27T13:10:19.430Z,45.20
2019-03-27T13:12:48.204Z,41.70
2019-03-27T13:15:17.065Z,42.00
2019-03-27T13:17:45.939Z,39.80
2019-03-27T13:20:14.779Z,39.10
2019-03-27T13:22:43.620Z,38.80
2019-03-27T13:25:12.479Z,38.90
2019-03-27T13:27:41.280Z,38.40
2019-03-27T13:30:10.114Z,39.10
2019-03-27T13:32:38.915Z,37.60
2019-03-27T13:35:07.837Z,36.90
2019-03-27T13:37:36.607Z,39.40
2019-03-27T13:40:08.536Z,39.10
2019-03-27T13:42:37.299Z,39.40
2019-03-27T13:45:06.777Z,39.80
2019-03-27T13:47:35.756Z,38.70
2019-03-27T13:50:07.350Z,39.00
2019-03-27T13:52:36.194Z,38.30
2019-03-27T13:55:06.992Z,39.00
2019-03-27T13:57:36.413Z,37.60
2019-03-27T14:00:08.798Z,39.40
2019-03-27T14:02:37.980Z,41.80
2019-03-27T14:05:06.831Z,44.20
2019-03-27T14:07:35.973Z,44.10
2019-03-27T14:10:07.517Z,43.90
2019-03-27T14:12:36.387Z,44.00
2019-03-27T14:15:08.074Z,44.10
2019-03-27T14:17:37.027Z,44.60
2019-03-27T14:20:07.590Z,44.50
2019-03-27T14:22:36.811Z,44.00
2019-03-27T14:25:08.862Z,43.20
2019-03-27T14:27:37.709Z,43.40
2019-03-27T14:30:08.917Z,44.00
2019-03-27T14:32:37.725Z,43.20
2019-03-27T14:35:06.672Z,43.80
2019-03-27T14:37:35.519Z,44.30
2019-03-27T14:40:07.383Z,44.50
2019-03-27T14:42:36.261Z,45.00
2019-03-27T14:45:07.232Z,45.10
2019-03-27T14:47:36.686Z,45.30
2019-03-27T14:50:07.679Z,44.10
2019-03-27T14:52:36.447Z,45.10
2019-03-27T14:55:07.192Z,43.30
2019-03-27T14:57:36.838Z,44.40
2019-03-27T15:00:09.622Z,44.10
2019-03-27T15:02:38.512Z,44.50
2019-03-27T15:05:08.043Z,44.40
2019-03-27T15:07:36.829Z,44.40
2019-03-27T15:10:09.132Z,44.40
2019-03-27T15:12:37.919Z,43.70
2019-03-27T15:15:08.393Z,45.80
2019-03-27T15:17:37.634Z,45.30
2019-03-27T15:20:08.098Z,43.90
2019-03-27T15:22:36.868Z,44.50
2019-03-27T15:25:08.049Z,44.20
2019-03-27T15:27:36.869Z,45.00
2019-03-27T15:30:06.621Z,45.90
2019-03-27T15:32:36.651Z,46.10
2019-03-27T15:35:05.524Z,46.30
2019-03-27T15:37:35.169Z,46.00
2019-03-27T15:40:05.451Z,45.80
2019-03-27T15:42:34.431Z,46.50
2019-03-27T15:45:05.896Z,45.40
2019-03-27T15:47:34.768Z,46.30
2019-03-27T15:50:04.889Z,46.70
2019-03-27T15:52:36.639Z,45.00
2019-03-27T15:55:04.620Z,45.40
2019-03-27T15:57:34.282Z,45.50
2019-03-27T16:00:04.695Z,45.50
2019-03-27T16:02:33.488Z,45.70
2019-03-27T16:05:02.532Z,45.50
2019-03-27T16:07:31.646Z,46.10
2019-03-27T16:10:00.501Z,46.80
2019-03-27T16:12:29.288Z,46.70
2019-03-27T16:14:58.106Z,46.70
2019-03-27T16:17:26.939Z,46.50
2019-03-27T16:19:55.798Z,48.00
2019-03-27T16:22:24.904Z,47.40
2019-03-27T16:24:53.717Z,46.60
2019-03-27T16:27:22.568Z,46.60
2019-03-27T16:29:51.411Z,47.20
2019-03-27T16:32:20.273Z,47.00
2019-03-27T16:34:49.064Z,46.10
2019-03-27T16:37:17.902Z,46.10
2019-03-27T16:39:46.782Z,45.40
2019-03-27T16:42:15.587Z,45.50
2019-03-27T16:44:44.424Z,47.00
2019-03-27T16:47:13.519Z,46.00
2019-03-27T16:49:42.366Z,45.40
2019-03-27T16:52:11.269Z,45.70
2019-03-27T16:54:40.057Z,45.20
2019-03-27T16:57:08.852Z,46.50
2019-03-27T16:59:37.624Z,46.20
2019-03-27T17:02:06.914Z,47.20
2019-03-27T17:04:35.693Z,46.80
2019-03-27T17:07:04.495Z,47.00
2019-03-27T17:09:33.385Z,45.80
2019-03-27T17:12:02.174Z,46.70
2019-03-27T17:14:31.030Z,47.30
2019-03-27T17:16:59.902Z,46.50
2019-03-27T17:19:28.700Z,46.90
2019-03-27T17:21:57.494Z,46.70
2019-03-27T17:24:26.383Z,48.50
2019-03-27T17:26:55.223Z,47.30
2019-03-27T17:29:24.076Z,48.60
2019-03-27T17:31:52.953Z,48.10
2019-03-27T17:34:21.812Z,49.60
2019-03-27T17:36:50.632Z,48.60
2019-03-27T17:39:19.485Z,48.70
2019-03-27T17:41:48.273Z,49.00
2019-03-27T17:44:17.123Z,49.70
2019-03-27T17:46:45.951Z,49.70
2019-03-27T17:49:14.789Z,49.20
2019-03-27T17:51:43.574Z,49.80
2019-03-27T17:54:20.557Z,50.70
2019-03-27T17:56:43.639Z,49.00
2019-03-27T17:59:13.600Z,49.90
2019-03-27T18:01:43.053Z,53.50
2019-03-27T18:04:12.310Z,52.40
2019-03-27T18:06:41.077Z,51.10
2019-03-27T18:09:09.977Z,51.90
2019-03-27T18:11:38.814Z,52.30
2019-03-27T18:14:07.586Z,53.10
2019-03-27T18:16:36.410Z,54.90
2019-03-27T18:19:05.263Z,54.10
2019-03-27T18:21:34.119Z,52.60
2019-03-27T18:24:02.996Z,52.30
2019-03-27T18:26:31.980Z,52.20
2019-03-27T18:29:00.841Z,52.90
2019-03-27T18:31:29.728Z,53.00
2019-03-27T18:33:58.577Z,54.40
2019-03-27T18:36:27.630Z,52.60
2019-03-27T18:38:56.477Z,51.50
2019-03-27T18:41:25.356Z,53.00
2019-03-27T18:43:54.520Z,52.80
2019-03-27T18:46:23.428Z,51.40
2019-03-27T18:48:52.389Z,52.30
2019-03-27T18:51:21.225Z,52.10
2019-03-27T18:53:59.603Z,51.80
2019-03-27T18:56:20.532Z,52.70
2019-03-27T18:58:49.615Z,53.10
2019-03-27T19:01:18.510Z,52.60
2019-03-27T19:03:47.294Z,52.60
2019-03-27T19:06:16.149Z,53.70
2019-03-27T19:08:44.944Z,52.90
2019-03-27T19:11:13.723Z,53.20
2019-03-27T19:13:42.517Z,53.90
2019-03-27T19:16:11.333Z,54.00
2019-03-27T19:18:40.196Z,54.60
2019-03-27T19:21:08.987Z,54.40
2019-03-27T19:23:37.843Z,55.20
2019-03-27T19:26:06.899Z,55.20
2019-03-27T19:28:35.991Z,54.70
2019-03-27T19:31:04.972Z,55.60
2019-03-27T19:33:33.820Z,56.60
2019-03-27T19:36:02.605Z,56.00
2019-03-27T19:38:31.784Z,56.40
2019-03-27T19:41:00.620Z,56.60
2019-03-27T19:43:29.480Z,56.20
2019-03-27T19:45:58.369Z,56.20
2019-03-27T19:48:27.140Z,56.60
2019-03-27T19:50:55.930Z,56.30
2019-03-27T19:53:24.723Z,56.00
2019-03-27T19:55:53.498Z,57.20
2019-03-27T19:58:22.267Z,56.10
2019-03-27T20:00:51.163Z,57.50
2019-03-27T20:03:20.005Z,56.60
2019-03-27T20:05:49.103Z,55.90
2019-03-27T20:08:17.916Z,55.80
2019-03-27T20:10:46.702Z,56.40
2019-03-27T20:13:15.662Z,56.20
2019-03-27T20:15:44.555Z,55.80
2019-03-27T20:18:13.399Z,55.90
2019-03-27T20:20:42.565Z,55.30
2019-03-27T20:23:15.150Z,55.40
2019-03-27T20:25:41.912Z,55.20
2019-03-27T20:28:10.763Z,55.30
2019-03-27T20:30:39.594Z,54.90
2019-03-27T20:33:08.443Z,55.20
2019-03-27T20:35:37.222Z,56.10
2019-03-27T20:38:06.096Z,56.00
2019-03-27T20:40:34.935Z,56.20
2019-03-27T20:43:03.701Z,56.90
2019-03-27T20:45:32.494Z,56.80
2019-03-27T20:48:01.371Z,57.30
2019-03-27T20:50:30.143Z,58.30
2019-03-27T20:52:59.042Z,58.10
2019-03-27T20:55:30.450Z,58.40
2019-03-27T20:57:58.308Z,58.10
2019-03-27T21:00:27.188Z,59.80
2019-03-27T21:02:56.029Z,60.60
2019-03-27T21:05:24.812Z,59.40
2019-03-27T21:07:53.629Z,59.30
2019-03-27T21:10:22.402Z,58.70
2019-03-27T21:12:51.179Z,59.70
2019-03-27T21:15:20.071Z,59.80
2019-03-27T21:17:48.866Z,59.70
2019-03-27T21:20:17.711Z,59.10
2019-03-27T21:22:46.519Z,59.50
2019-03-27T21:25:15.360Z,59.30
2019-03-27T21:27:44.149Z,59.10
2019-03-27T21:30:12.987Z,59.40
2019-03-27T21:32:41.899Z,59.30
2019-03-27T21:35:10.852Z,59.60
2019-03-27T21:37:40.187Z,59.50
2019-03-27T21:40:09.166Z,59.30
2019-03-27T21:42:38.065Z,60.00
2019-03-27T21:45:08.940Z,60.70
2019-03-27T21:47:37.840Z,61.70
2019-03-27T21:50:07.925Z,62.90
2019-03-27T21:52:36.845Z,63.20
2019-03-27T21:55:06.835Z,63.20
2019-03-27T21:57:35.745Z,63.30
2019-03-27T22:00:05.983Z,61.20
2019-03-27T22:02:34.886Z,60.10
2019-03-27T22:05:04.529Z,59.90
2019-03-27T22:07:33.763Z,59.30
2019-03-27T22:10:02.961Z,59.70
2019-03-27T22:12:31.858Z,61.10
2019-03-27T22:15:00.793Z,62.40
2019-03-27T22:17:29.697Z,62.40
2019-03-27T22:19:58.594Z,63.10
2019-03-27T22:22:27.524Z,63.60
2019-03-27T22:24:56.716Z,62.70
2019-03-27T22:27:25.915Z,61.50
2019-03-27T22:29:54.923Z,60.50
2019-03-27T22:32:23.834Z,61.60
2019-03-27T22:34:52.756Z,61.10
2019-03-27T22:37:21.702Z,61.30
2019-03-27T22:39:50.619Z,61.90
2019-03-27T22:42:19.519Z,61.60
2019-03-27T22:44:48.447Z,60.40
2019-03-27T22:47:17.671Z,60.10
2019-03-27T22:49:46.590Z,59.90
2019-03-27T22:52:15.513Z,60.80
2019-03-27T22:54:44.457Z,60.90
2019-03-27T22:57:13.365Z,60.40
2019-03-27T22:59:42.308Z,60.00
2019-03-27T23:02:11.215Z,61.90
2019-03-27T23:04:40.442Z,61.50
2019-03-27T23:07:09.368Z,61.70
2019-03-27T23:09:38.623Z,62.10
2019-03-27T23:12:07.818Z,62.10
2019-03-27T23:14:36.778Z,62.80
2019-03-27T23:17:05.688Z,61.30
2019-03-27T23:19:34.582Z,61.50
2019-03-27T23:22:03.523Z,61.50
2019-03-27T23:24:32.418Z,62.10
2019-03-27T23:27:01.315Z,61.80
2019-03-27T23:29:30.247Z,60.80
2019-03-27T23:31:59.141Z,61.30
2019-03-27T23:34:28.033Z,61.40
2019-03-27T23:36:56.978Z,61.50
2019-03-27T23:39:25.932Z,62.30
2019-03-27T23:41:54.825Z,63.00
2019-03-27T23:44:24.053Z,63.10
2019-03-27T23:46:53.023Z,64.60
2019-03-27T23:49:21.937Z,65.40
2019-03-27T23:51:50.873Z,65.20
2019-03-27T23:54:19.786Z,63.70
2019-03-27T23:56:48.765Z,65.00
2019-03-27T23:59:18.060Z,64.90
